Time;durP1;ratioP1;P1;durP2;ratioP2;P2;SDS_P1;SDS_P2;PMS_P1;PMS_P2;Temp;Humidity;BMP_temperature;BMP_pressure;BME280_temperature;BME280_humidity;BME280_pressure;Samples;Min_cycle;Max_cycle;Signal;HPM_P1;HPM_P2
2022/09/04 00:01:14;;;;;;;4.43;2.08;;;23.30;63.20;;;;;;4960560;28;20031;-60
2022/09/04 00:03:46;;;;;;;5.47;2.10;;;23.30;63.10;;;;;;4948950;28;20046;-60
2022/09/04 00:06:25;;;;;;;5.65;2.35;;;23.30;63.20;;;;;;4957003;28;20161;-60
2022/09/04 00:09:02;;;;;;;5.65;2.05;;;23.30;63.20;;;;;;4948121;28;20093;-60
2022/09/04 00:11:45;;;;;;;5.63;2.08;;;23.30;63.20;;;;;;4945739;28;20494;-60
2022/09/04 00:14:20;;;;;;;3.58;2.03;;;23.30;63.20;;;;;;4946197;28;20162;-60
2022/09/04 00:16:54;;;;;;;6.30;2.20;;;23.30;63.30;;;;;;4948035;28;20034;-61
2022/09/04 00:19:38;;;;;;;4.68;2.00;;;23.30;63.20;;;;;;4947747;28;20118;-61
2022/09/04 00:22:14;;;;;;;5.95;2.13;;;23.30;63.20;;;;;;4963074;28;20113;-61
2022/09/04 00:24:44;;;;;;;7.40;2.15;;;23.30;63.20;;;;;;4962676;28;20043;-60
2022/09/04 00:30:32;;;;;;;4.28;2.08;;;23.30;63.20;;;;;;4956886;28;20077;-61
2022/09/04 00:33:11;;;;;;;5.30;2.00;;;23.30;64.30;;;;;;4978330;28;20050;-61
2022/09/04 00:35:39;;;;;;;5.93;2.00;;;23.30;63.20;;;;;;4995487;28;20030;-61
2022/09/04 00:38:43;;;;;;;5.53;2.20;;;23.30;63.20;;;;;;5000033;28;20026;-61
2022/09/04 00:41:21;;;;;;;4.13;1.80;;;23.30;63.20;;;;;;4982870;28;20022;-61
2022/09/04 00:44:11;;;;;;;5.15;2.10;;;23.30;63.20;;;;;;4982209;28;20033;-61
2022/09/04 00:46:44;;;;;;;5.05;2.28;;;23.30;63.10;;;;;;4985626;28;20469;-61
2022/09/04 00:49:45;;;;;;;3.95;1.88;;;23.30;63.10;;;;;;4988446;28;20018;-61
2022/09/04 00:52:44;;;;;;;4.95;2.00;;;23.30;63.00;;;;;;5010415;28;20034;-60
2022/09/04 00:55:39;;;;;;;5.20;2.03;;;23.30;63.20;;;;;;4986875;28;20028;-60
2022/09/04 00:58:08;;;;;;;;;;;23.30;63.20;;;;;;4993609;28;20032;-61
2022/09/04 01:00:34;;;;;;;4.38;2.05;;;23.30;63.30;;;;;;4988805;28;19909;-61
2022/09/04 01:03:06;;;;;;;5.68;2.30;;;23.30;63.20;;;;;;4967543;28;20545;-61
2022/09/04 01:05:51;;;;;;;5.63;2.10;;;23.30;63.30;;;;;;4987181;28;20447;-61
2022/09/04 01:08:39;;;;;;;5.07;1.95;;;23.30;63.20;;;;;;4997305;28;20037;-61
2022/09/04 01:11:20;;;;;;;5.13;2.00;;;23.30;63.40;;;;;;4990374;28;20022;-61
2022/09/04 01:14:22;;;;;;;5.25;2.40;;;23.30;63.30;;;;;;4996000;28;20027;-61
2022/09/04 01:16:50;;;;;;;3.58;2.00;;;23.30;63.20;;;;;;4988802;28;20018;-61
2022/09/04 01:19:43;;;;;;;4.80;2.30;;;23.30;63.30;;;;;;4996181;28;20123;-61
2022/09/04 01:22:24;;;;;;;3.97;1.98;;;23.20;63.20;;;;;;4989806;28;20038;-61
2022/09/04 01:24:55;;;;;;;5.93;2.20;;;23.20;63.20;;;;;;4985750;28;20026;-61
2022/09/04 01:27:23;;;;;;;4.45;2.10;;;23.20;63.20;;;;;;4983268;28;20031;-61
2022/09/04 01:30:04;;;;;;;5.43;2.33;;;23.20;63.20;;;;;;4982284;28;20109;-60
2022/09/04 01:33:01;;;;;;;5.47;2.20;;;23.20;63.20;;;;;;4996777;28;20030;-60
2022/09/04 01:35:36;;;;;;;5.47;2.20;;;23.20;63.20;;;;;;5001049;28;20046;-61
2022/09/04 01:38:20;;;;;;;5.00;1.80;;;23.20;63.20;;;;;;4997791;28;20034;-61
2022/09/04 01:40:52;;;;;;;4.70;1.88;;;23.20;63.20;;;;;;4984669;28;20066;-61
2022/09/04 01:43:20;;;;;;;4.90;2.13;;;23.20;63.20;;;;;;4996669;28;20050;-60
2022/09/04 01:45:58;;;;;;;4.72;1.90;;;23.20;63.20;;;;;;4984745;28;20117;-61
2022/09/04 01:48:48;;;;;;;5.63;2.03;;;23.20;63.20;;;;;;4983240;28;20039;-61
2022/09/04 01:51:19;;;;;;;4.78;1.77;;;23.20;63.20;;;;;;4988231;28;20038;-61
2022/09/04 01:53:48;;;;;;;5.07;1.80;;;23.20;63.10;;;;;;4986798;28;20084;-61
2022/09/04 01:56:24;;;;;;;5.43;1.95;;;23.20;63.20;;;;;;4981202;28;20042;-61
2022/09/04 01:58:54;;;;;;;6.57;2.20;;;23.20;63.10;;;;;;4983256;28;20506;-61
2022/09/04 02:01:42;;;;;;;5.82;2.03;;;23.20;63.20;;;;;;5001761;28;20481;-61
2022/09/04 02:07:43;;;;;;;4.80;1.92;;;23.20;63.20;;;;;;4976153;28;20053;-60
2022/09/04 02:10:36;;;;;;;6.15;2.10;;;23.20;63.20;;;;;;4973914;28;20517;-60
2022/09/04 02:13:21;;;;;;;4.13;1.98;;;23.20;63.20;;;;;;4976129;28;20487;-60
2022/09/04 02:16:04;;;;;;;4.57;1.95;;;23.20;63.20;;;;;;4976397;28;20034;-60
2022/09/04 02:18:44;;;;;;;3.58;1.77;;;23.20;63.20;;;;;;4974621;28;20524;-61
2022/09/04 02:21:34;;;;;;;4.43;1.90;;;23.20;63.20;;;;;;4974799;28;20088;-60
2022/09/04 02:24:13;;;;;;;5.70;1.75;;;23.20;63.20;;;;;;4951229;28;20031;-61
2022/09/04 02:27:06;;;;;;;4.18;2.00;;;23.20;63.20;;;;;;4947342;28;20113;-61
2022/09/04 02:29:43;;;;;;;6.80;2.00;;;23.20;63.20;;;;;;4938374;28;20041;-61
2022/09/04 02:32:18;;;;;;;4.15;1.80;;;23.10;63.10;;;;;;4960478;28;20046;-61
2022/09/04 02:34:47;;;;;;;6.07;2.00;;;23.20;63.20;;;;;;4946462;28;20046;-61
2022/09/04 02:37:21;;;;;;;4.15;1.90;;;23.20;63.20;;;;;;4956263;28;20043;-61
2022/09/04 02:39:59;;;;;;;5.28;2.05;;;23.10;63.10;;;;;;4956646;28;20035;-61
2022/09/04 02:42:46;;;;;;;5.53;2.05;;;23.20;63.20;;;;;;4960202;28;20046;-61
2022/09/04 02:45:37;;;;;;;5.55;1.90;;;23.10;63.10;;;;;;4949242;28;20035;-60
2022/09/04 02:48:14;;;;;;;4.60;1.88;;;23.10;63.10;;;;;;4947659;28;20550;-61
2022/09/04 02:50:52;;;;;;;5.65;2.00;;;23.10;63.10;;;;;;4930694;28;20031;-60
2022/09/04 02:53:38;;;;;;;4.72;1.85;;;23.10;63.10;;;;;;4962316;28;20049;-60
2022/09/04 02:56:20;;;;;;;5.55;2.10;;;23.10;63.10;;;;;;4965570;28;20412;-61
2022/09/04 02:59:13;;;;;;;5.57;1.77;;;23.10;63.10;;;;;;4944757;28;20027;-61
2022/09/04 03:01:50;;;;;;;4.70;1.92;;;23.10;63.10;;;;;;4976130;28;20031;-60
2022/09/04 03:04:21;;;;;;;4.32;1.80;;;23.10;63.10;;;;;;4978776;28;20033;-61
2022/09/04 03:07:08;;;;;;;4.78;2.13;;;23.10;63.10;;;;;;4993192;28;20052;-60
2022/09/04 03:09:37;;;;;;;3.25;1.73;;;23.10;63.10;;;;;;4999626;28;20034;-60
2022/09/04 03:12:27;;;;;;;4.30;1.70;;;23.10;63.20;;;;;;4987192;28;20403;-60
2022/09/04 03:15:19;;;;;;;4.70;2.00;;;23.10;63.10;;;;;;4987705;28;20030;-61
2022/09/04 03:18:07;;;;;;;4.47;1.85;;;23.10;63.10;;;;;;5014525;28;20022;-61
2022/09/04 03:20:40;;;;;;;7.43;2.13;;;23.10;63.10;;;;;;4995729;28;20046;-60
2022/09/04 03:23:22;;;;;;;5.10;1.88;;;23.10;63.10;;;;;;4994049;28;20110;-61
2022/09/04 03:26:06;;;;;;;4.47;2.00;;;23.10;63.10;;;;;;4982742;28;20045;-61
2022/09/04 03:28:39;;;;;;;5.00;1.92;;;23.10;63.20;;;;;;4983770;28;20491;-61
2022/09/04 03:31:21;;;;;;;4.68;1.90;;;23.10;63.10;;;;;;4996451;28;20029;-61
2022/09/04 03:33:51;;;;;;;4.35;2.00;;;23.10;63.20;;;;;;4997324;28;20058;-61
2022/09/04 03:36:42;;;;;;;5.95;2.15;;;23.10;63.20;;;;;;4979544;28;20089;-60
2022/09/04 03:39:15;;;;;;;5.20;2.13;;;23.10;63.10;;;;;;4996490;28;20034;-61
2022/09/04 03:42:05;;;;;;;3.95;1.70;;;23.10;63.10;;;;;;4983785;28;20471;-61
2022/09/04 03:44:53;;;;;;;5.00;2.00;;;23.10;63.10;;;;;;5001477;28;20022;-61
2022/09/04 03:47:51;;;;;;;3.80;1.83;;;23.10;63.10;;;;;;5010362;28;20097;-60
2022/09/04 03:50:28;;;;;;;4.43;1.90;;;23.10;63.10;;;;;;4978810;28;20022;-60
2022/09/04 03:53:30;;;;;;;4.40;2.00;;;23.10;63.10;;;;;;4983491;28;20045;-61
2022/09/04 03:56:24;;;;;;;4.07;1.95;;;23.10;63.10;;;;;;4963216;28;20069;-61
2022/09/04 03:59:05;;;;;;;4.18;1.67;;;23.00;63.10;;;;;;4965629;28;20038;-61
2022/09/04 04:01:50;;;;;;;5.93;1.65;;;23.10;63.10;;;;;;4966605;28;20031;-61
2022/09/04 04:04:42;;;;;;;5.53;2.03;;;23.00;63.10;;;;;;4964085;28;20043;-60
2022/09/04 04:07:33;;;;;;;5.75;1.88;;;23.00;63.10;;;;;;4973174;28;20030;-61
2022/09/04 04:10:23;;;;;;;4.90;1.85;;;23.00;63.10;;;;;;4961617;28;20068;-61
2022/09/04 04:12:55;;;;;;;5.40;1.90;;;23.00;63.10;;;;;;4993682;28;20553;-60
2022/09/04 04:15:44;;;;;;;5.20;2.10;;;23.00;63.10;;;;;;4973750;28;20189;-61
2022/09/04 04:18:15;;;;;;;5.15;1.90;;;23.00;63.10;;;;;;4971414;28;20031;-60
2022/09/04 04:20:51;;;;;;;4.90;1.80;;;23.00;63.10;;;;;;4973498;28;20058;-60
2022/09/04 04:23:16;;;;;;;5.47;1.90;;;23.00;63.10;;;;;;4974142;28;20423;-61
2022/09/04 04:26:00;;;;;;;5.15;1.83;;;23.00;63.10;;;;;;4973984;28;20049;-61
2022/09/04 04:28:47;;;;;;;3.45;1.70;;;23.00;63.10;;;;;;4974945;28;20031;-60
2022/09/04 04:32:09;;;;;;;5.53;1.75;;;23.00;63.10;;;;;;4976789;28;20104;-61
2022/09/04 04:35:02;;;;;;;4.88;1.90;;;23.00;63.10;;;;;;4977519;28;20038;-61
2022/09/04 04:38:18;;;;;;;4.22;1.75;;;23.00;63.10;;;;;;4907501;29;20055;-61
2022/09/04 04:41:02;;;;;;;4.85;1.70;;;23.00;63.10;;;;;;4889366;29;20059;-61
2022/09/04 04:43:46;;;;;;;5.38;1.90;;;23.00;63.10;;;;;;4888209;29;20745;-61
2022/09/04 04:46:44;;;;;;;4.10;1.90;;;23.00;63.10;;;;;;4890038;29;20041;-61
2022/09/04 04:49:47;;;;;;;5.10;2.03;;;23.00;63.10;;;;;;4889261;29;20048;-61
2022/09/04 04:52:43;;;;;;;3.63;1.85;;;23.00;63.20;;;;;;4888718;29;20116;-61
2022/09/04 04:55:40;;;;;;;3.38;1.70;;;23.00;63.20;;;;;;4872242;29;20062;-61
2022/09/04 04:58:06;;;;;;;4.93;1.75;;;23.00;63.30;;;;;;4886670;29;20095;-60
2022/09/04 05:00:51;;;;;;;5.50;2.00;;;23.00;63.30;;;;;;4889517;29;20033;-61
2022/09/04 05:03:22;;;;;;;4.53;2.03;;;23.00;63.20;;;;;;4888168;29;20606;-61
2022/09/04 05:06:01;;;;;;;4.53;1.80;;;23.00;63.30;;;;;;4889450;29;20076;-61
2022/09/04 05:08:44;;;;;;;5.40;2.00;;;23.00;63.30;;;;;;4887452;29;20525;-60
2022/09/04 05:11:36;;;;;;;4.43;1.63;;;23.00;63.30;;;;;;4876894;29;20137;-61
2022/09/04 05:14:19;;;;;;;4.18;1.60;;;23.00;63.30;;;;;;4918213;28;20043;-60
2022/09/04 05:16:57;;;;;;;4.47;1.80;;;23.00;63.30;;;;;;4969606;28;20046;-60
2022/09/04 05:19:38;;;;;;;4.15;2.00;;;23.00;63.30;;;;;;4996784;28;20050;-61
2022/09/04 05:22:07;;;;;;;4.72;2.10;;;23.00;63.30;;;;;;4979859;28;20038;-61
2022/09/04 05:24:37;;;;;;;5.72;1.83;;;23.00;63.30;;;;;;4983098;28;20046;-61
2022/09/04 05:27:19;;;;;;;4.05;1.70;;;23.00;63.30;;;;;;4999419;28;20858;-61
2022/09/04 05:33:12;;;;;;;3.35;1.67;;;22.90;63.20;;;;;;4983660;28;20561;-61
2022/09/04 05:36:21;;;;;;;4.72;1.70;;;23.00;63.30;;;;;;4988632;28;20062;-61
2022/09/04 05:39:08;;;;;;;4.63;1.70;;;23.00;63.40;;;;;;4987926;28;20120;-61
2022/09/04 05:41:47;;;;;;;5.13;1.98;;;23.00;63.40;;;;;;4986119;28;20037;-61
2022/09/04 05:48:14;;;;;;;4.57;1.75;;;23.00;63.40;;;;;;4957735;28;20585;-61
2022/09/04 05:51:17;;;;;;;5.25;1.95;;;23.00;63.40;;;;;;4958114;28;20045;-61
2022/09/04 05:54:20;;;;;;;5.80;1.80;;;22.90;63.40;;;;;;4959963;28;20037;-61
2022/09/04 05:56:57;;;;;;;3.63;1.80;;;22.90;63.40;;;;;;4963068;28;20081;-61
2022/09/04 05:59:55;;;;;;;5.22;1.90;;;22.90;63.40;;;;;;4962195;28;20051;-61
2022/09/04 06:02:55;;;;;;;4.90;1.90;;;22.90;63.50;;;;;;4927802;29;20043;-61
2022/09/04 06:05:39;;;;;;;4.00;1.90;;;23.00;63.40;;;;;;4928631;29;20062;-61
2022/09/04 06:08:23;;;;;;;5.05;1.85;;;22.90;63.40;;;;;;4927625;29;20791;-61
2022/09/04 06:10:57;;;;;;;4.45;1.73;;;22.90;63.40;;;;;;4927934;29;20074;-61
2022/09/04 06:17:14;;;;;;;6.47;2.05;;;22.90;63.40;;;;;;4905571;29;20047;-61
2022/09/04 06:20:09;;;;;;;4.05;1.80;;;22.90;63.40;;;;;;4907088;29;20079;-61
2022/09/04 06:23:04;;;;;;;5.38;1.80;;;22.90;63.40;;;;;;4902646;29;20049;-61
2022/09/04 06:26:05;;;;;;;4.07;1.67;;;22.90;63.50;;;;;;4870645;29;20057;-61
2022/09/04 06:28:43;;;;;;;5.88;2.13;;;22.90;63.40;;;;;;4867639;29;20036;-61
2022/09/04 06:34:51;;;;;;;3.80;1.83;;;22.90;63.50;;;;;;4862786;29;20120;-61
2022/09/04 06:37:55;;;;;;;5.80;1.83;;;22.90;63.40;;;;;;4870123;29;20075;-61
2022/09/04 06:40:32;;;;;;;5.60;1.90;;;22.90;63.50;;;;;;4919385;29;20571;-61
2022/09/04 06:43:16;;;;;;;4.20;1.80;;;22.90;63.40;;;;;;4921633;29;20032;-63
2022/09/04 06:46:13;;;;;;;4.82;1.90;;;22.90;63.50;;;;;;4920861;29;20042;-61
2022/09/04 06:48:51;;;;;;;4.55;2.10;;;22.90;63.50;;;;;;4905405;29;20121;-61
2022/09/04 06:51:37;;;;;;;3.92;1.90;;;22.90;63.50;;;;;;4967111;28;20058;-61
2022/09/04 06:54:18;;;;;;;4.60;2.05;;;22.90;63.50;;;;;;4961024;28;20113;-61
2022/09/04 06:56:49;;;;;;;5.15;1.83;;;22.90;63.50;;;;;;4961105;28;20043;-61
2022/09/04 06:59:27;;;;;;;5.40;2.00;;;22.90;63.50;;;;;;4957223;28;20031;-61
2022/09/04 07:02:10;;;;;;;4.82;1.77;;;22.90;63.50;;;;;;4962875;28;20038;-61
2022/09/04 07:04:46;;;;;;;2.97;1.63;;;22.90;63.50;;;;;;4946561;28;20328;-61
2022/09/04 07:07:17;;;;;;;6.38;2.00;;;22.90;63.50;;;;;;4948556;28;20043;-62
2022/09/04 07:09:48;;;;;;;4.72;1.80;;;22.90;63.50;;;;;;4949148;28;20026;-61
2022/09/04 07:12:17;;;;;;;5.10;1.90;;;22.90;63.50;;;;;;4944958;28;20046;-61
2022/09/04 07:14:46;;;;;;;5.35;1.90;;;22.90;63.40;;;;;;4958742;28;20079;-61
2022/09/04 07:17:32;;;;;;;5.80;1.80;;;22.90;63.50;;;;;;4948877;28;20565;-61
2022/09/04 07:20:18;;;;;;;4.68;2.03;;;22.90;63.40;;;;;;4950048;28;20051;-61
2022/09/04 07:23:25;;;;;;;4.72;1.95;;;22.90;63.40;;;;;;4947140;28;20031;-61
2022/09/04 07:26:12;;;;;;;5.82;2.00;;;22.90;63.50;;;;;;4979390;28;20073;-61
2022/09/04 07:28:56;;;;;;;5.47;1.85;;;22.90;63.60;;;;;;4976026;28;20038;-61
2022/09/04 07:31:57;;;;;;;4.53;1.45;;;22.90;63.60;;;;;;4975028;28;20045;-61
2022/09/04 07:34:58;;;;;;;5.18;1.77;;;22.90;63.60;;;;;;4997011;28;20106;-62
2022/09/04 07:38:03;;;;;;;8.60;2.67;;;22.90;63.60;;;;;;4991464;28;20190;-62
2022/09/04 07:40:42;;;;;;;7.30;2.47;;;22.80;64.20;;;;;;4997392;28;20086;-62
2022/09/04 07:43:33;;;;;;;15.50;3.20;;;22.80;64.30;;;;;;4996138;28;20065;-62
2022/09/04 07:46:04;;;;;;;9.23;2.58;;;22.80;64.50;;;;;;4997909;28;20041;-62
2022/09/04 07:48:37;;;;;;;13.13;2.97;;;22.80;64.60;;;;;;4994713;28;20039;-61
2022/09/04 07:54:29;;;;;;;13.70;3.47;;;22.80;64.80;;;;;;4990101;28;20122;-62
2022/09/04 07:56:56;;;;;;;11.35;3.10;;;22.80;65.00;;;;;;4994054;28;20037;-62
2022/09/04 07:59:34;;;;;;;11.93;3.10;;;22.80;65.10;;;;;;4995009;28;20034;-61
2022/09/04 08:02:20;;;;;;;12.48;3.55;;;22.80;65.20;;;;;;4987610;28;20038;-61
2022/09/04 08:04:53;;;;;;;11.43;4.10;;;22.80;65.10;;;;;;4983435;28;20548;-62
2022/09/04 08:07:47;;;;;;;13.27;3.95;;;22.80;65.20;;;;;;4983649;28;20046;-62
2022/09/04 08:10:36;;;;;;;14.90;3.63;;;22.80;65.00;;;;;;4993341;28;20105;-61
2022/09/04 08:13:18;;;;;;;12.23;3.95;;;22.80;65.20;;;;;;4984994;28;20041;-62
2022/09/04 08:16:06;;;;;;;11.68;4.30;;;22.80;65.20;;;;;;4994528;28;20073;-62
2022/09/04 08:21:54;;;;;;;12.10;3.72;;;22.80;65.10;;;;;;4977336;28;20186;-62
2022/09/04 08:24:52;;;;;;;9.95;3.70;;;22.80;65.00;;;;;;4986591;28;20698;-61
2022/09/04 08:27:32;;;;;;;12.27;3.70;;;22.80;65.00;;;;;;4978473;28;20069;-62
2022/09/04 08:30:08;;;;;;;13.73;4.00;;;22.80;65.10;;;;;;4979554;28;20105;-62
2022/09/04 08:32:52;;;;;;;13.55;4.00;;;22.80;65.10;;;;;;4974349;28;20077;-62
2022/09/04 08:35:21;;;;;;;13.48;3.88;;;22.80;64.90;;;;;;4974838;28;20122;-62
2022/09/04 08:38:17;;;;;;;12.68;3.90;;;22.80;64.80;;;;;;4978802;28;20043;-62
2022/09/04 08:44:23;;;;;;;13.55;3.90;;;22.90;65.50;;;;;;4981371;28;20097;-62
2022/09/04 08:47:18;;;;;;;11.48;3.53;;;22.90;65.70;;;;;;4977164;28;20038;-63
2022/09/04 08:50:05;;;;;;;12.93;4.40;;;22.90;65.30;;;;;;4966130;28;20030;-62
2022/09/04 08:52:43;;;;;;;12.95;3.53;;;22.90;65.40;;;;;;4979249;28;20069;-62
2022/09/04 08:55:31;;;;;;;14.30;3.90;;;22.90;65.20;;;;;;4979365;28;20513;-62
2022/09/04 08:58:26;;;;;;;11.40;3.63;;;22.90;65.00;;;;;;4958076;28;20477;-62
2022/09/04 09:01:28;;;;;;;10.85;3.47;;;22.90;64.90;;;;;;4974751;28;20113;-62
2022/09/04 09:03:57;;;;;;;12.10;3.72;;;22.90;64.80;;;;;;4969834;28;20521;-62
2022/09/04 09:06:52;;;;;;;10.43;3.40;;;23.00;64.90;;;;;;4990455;28;20637;-63
2022/09/04 09:09:56;;;;;;;9.27;3.47;;;23.00;64.90;;;;;;4992827;28;20038;-62
2022/09/04 09:12:50;;;;;;;12.63;3.90;;;22.90;64.80;;;;;;4987891;28;20053;-62
2022/09/04 09:16:11;;;;;;;9.85;3.50;;;23.00;64.80;;;;;;4987678;28;20054;-62
2022/09/04 09:18:38;;;;;;;10.88;3.75;;;23.00;64.70;;;;;;4947576;28;20038;-62
2022/09/04 09:21:09;;;;;;;10.60;3.60;;;23.00;64.70;;;;;;4931875;28;20051;-61
2022/09/04 09:23:50;;;;;;;10.15;3.78;;;23.00;64.60;;;;;;4948585;28;20042;-62
2022/09/04 09:26:19;;;;;;;12.32;3.53;;;23.00;64.60;;;;;;4948968;28;20058;-62
2022/09/04 09:29:15;;;;;;;9.25;3.30;;;23.00;64.60;;;;;;4949569;28;20035;-62
2022/09/04 09:32:15;;;;;;;10.65;3.40;;;23.00;64.60;;;;;;4930548;29;20032;-62
2022/09/04 09:35:02;;;;;;;11.77;3.67;;;23.00;64.60;;;;;;4932575;28;20083;-63
2022/09/04 09:38:00;;;;;;;10.43;3.30;;;23.10;64.60;;;;;;4947083;28;20051;-63
2022/09/04 09:40:50;;;;;;;10.27;3.60;;;23.00;64.40;;;;;;4948229;28;20066;-63
2022/09/04 09:43:38;;;;;;;10.88;3.20;;;23.00;64.30;;;;;;4945885;28;20122;-63
2022/09/04 09:46:25;;;;;;;10.25;3.25;;;23.00;64.40;;;;;;4947626;28;20442;-62
2022/09/04 09:49:12;;;;;;;14.50;3.10;;;23.00;65.20;;;;;;4960334;28;20095;-63
2022/09/04 09:52:15;;;;;;;9.23;3.08;;;23.00;64.90;;;;;;4982710;28;20037;-62
2022/09/04 09:55:00;;;;;;;12.10;3.05;;;23.00;63.90;;;;;;4987422;28;20557;-62
2022/09/04 09:57:41;;;;;;;11.90;2.72;;;23.00;63.70;;;;;;5010626;28;20027;-64
2022/09/04 10:00:11;;;;;;;12.32;3.25;;;23.00;63.50;;;;;;4989304;28;20046;-63
2022/09/04 10:02:58;;;;;;;12.35;2.85;;;22.90;63.30;;;;;;4997058;28;20022;-62
2022/09/04 10:05:36;;;;;;;9.20;2.85;;;22.90;63.50;;;;;;4987649;28;20038;-62
2022/09/04 10:08:20;;;;;;;10.38;3.03;;;22.90;63.00;;;;;;4999557;28;20557;-63
2022/09/04 10:11:00;;;;;;;11.75;2.97;;;22.90;62.80;;;;;;4986476;28;20026;-63
2022/09/04 10:13:47;;;;;;;9.25;2.70;;;22.90;62.60;;;;;;4983226;28;20038;-63
2022/09/04 10:16:32;;;;;;;10.68;2.70;;;22.90;62.60;;;;;;4997896;28;20039;-63
2022/09/04 10:19:19;;;;;;;16.92;3.20;;;22.90;63.00;;;;;;4983796;28;20037;-63
2022/09/04 10:22:00;;;;;;;7.53;2.53;;;23.00;63.10;;;;;;4984822;28;20058;-63
2022/09/04 10:24:41;;;;;;;10.50;2.83;;;23.00;64.10;;;;;;4982891;28;20089;-63
2022/09/04 10:27:26;;;;;;;10.65;2.75;;;23.00;63.00;;;;;;4985292;28;20030;-63
2022/09/04 10:30:22;;;;;;;10.43;2.50;;;23.00;63.10;;;;;;4981982;28;20436;-63
2022/09/04 10:33:10;;;;;;;10.13;2.70;;;23.00;63.50;;;;;;4982055;28;20034;-63
2022/09/04 10:35:52;;;;;;;12.60;2.80;;;23.00;63.10;;;;;;4981587;28;20865;-63
2022/09/04 10:38:26;;;;;;;10.80;2.97;;;23.10;63.10;;;;;;4996907;28;20031;-63
2022/09/04 10:41:09;;;;;;;9.13;2.70;;;23.10;63.10;;;;;;5002699;28;20026;-62
2022/09/04 10:43:56;;;;;;;11.88;2.90;;;23.10;63.00;;;;;;4999663;28;20045;-63
2022/09/04 10:46:43;;;;;;;8.93;2.40;;;23.10;62.90;;;;;;4984266;28;20046;-63
2022/09/04 10:49:19;;;;;;;9.68;2.72;;;23.10;62.30;;;;;;4992221;28;20035;-63
2022/09/04 10:51:55;;;;;;;14.07;3.00;;;23.10;62.30;;;;;;4997054;28;20064;-63
2022/09/04 10:54:54;;;;;;;9.07;2.40;;;23.10;62.40;;;;;;4987293;28;20026;-63
2022/09/04 10:57:36;;;;;;;8.57;2.90;;;23.10;62.60;;;;;;4981123;28;20260;-63
2022/09/04 11:00:39;;;;;;;6.72;2.38;;;23.10;63.10;;;;;;4978500;28;20157;-63
2022/09/04 11:03:42;;;;;;;10.95;2.97;;;23.10;63.00;;;;;;4958008;28;20042;-63
2022/09/04 11:06:14;;;;;;;10.25;2.88;;;23.10;62.70;;;;;;4963205;28;20113;-63
2022/09/04 11:08:54;;;;;;;8.90;2.97;;;23.10;62.50;;;;;;4959343;28;20034;-63
2022/09/04 11:11:44;;;;;;;11.27;3.08;;;23.10;62.50;;;;;;4961998;28;20030;-63
2022/09/04 11:14:19;;;;;;;12.63;2.67;;;23.10;62.40;;;;;;4954651;28;20039;-63
2022/09/04 11:17:15;;;;;;;13.10;2.60;;;23.10;62.50;;;;;;4951922;28;20139;-63
2022/09/04 11:20:18;;;;;;;12.13;2.70;;;23.20;62.80;;;;;;4958801;28;20553;-63
2022/09/04 11:22:59;;;;;;;13.27;2.70;;;23.20;63.20;;;;;;4962579;28;20054;-63
2022/09/04 11:26:09;;;;;;;8.48;2.50;;;23.20;63.20;;;;;;4952415;28;20094;-63
2022/09/04 11:28:38;;;;;;;11.82;2.72;;;23.30;62.60;;;;;;4920004;29;20070;-63
2022/09/04 11:31:51;;;;;;;12.77;2.90;;;23.30;62.50;;;;;;4918577;29;20043;-62
2022/09/04 11:34:31;;;;;;;10.38;2.85;;;23.30;62.40;;;;;;4916376;29;20126;-63
2022/09/04 11:37:19;;;;;;;8.85;2.55;;;23.30;62.40;;;;;;4930549;29;20051;-63
2022/09/04 11:40:11;;;;;;;13.90;2.55;;;23.30;62.30;;;;;;4960583;28;20430;-63
2022/09/04 11:43:07;;;;;;;12.82;3.00;;;23.30;62.20;;;;;;4945573;28;20026;-63
2022/09/04 11:45:40;;;;;;;14.43;3.30;;;23.40;62.20;;;;;;4950204;28;20054;-64
2022/09/04 11:48:36;;;;;;;13.55;3.00;;;23.40;62.20;;;;;;4960575;28;20041;-66
2022/09/04 11:51:16;;;;;;;10.68;2.80;;;23.40;61.70;;;;;;4958062;28;20134;-65
2022/09/04 11:54:03;;;;;;;10.18;2.67;;;23.40;61.30;;;;;;4952545;28;20039;-65
2022/09/04 11:56:40;;;;;;;10.55;2.55;;;23.40;61.00;;;;;;4963460;28;20082;-64
2022/09/04 11:59:11;;;;;;;10.90;2.83;;;23.40;60.80;;;;;;4946901;28;20030;-66
2022/09/04 12:01:55;;;;;;;10.70;2.72;;;23.50;60.60;;;;;;4962541;28;20031;-65
2022/09/04 12:04:33;;;;;;;11.00;2.92;;;23.40;60.20;;;;;;4967822;28;20050;-64
2022/09/04 12:07:12;;;;;;;10.65;2.72;;;23.40;60.10;;;;;;4971004;28;20117;-63
2022/09/04 12:10:12;;;;;;;9.90;2.70;;;23.40;60.20;;;;;;4985649;28;20040;-65
2022/09/04 12:12:53;;;;;;;10.20;2.85;;;23.50;60.20;;;;;;4980878;28;20414;-64
2022/09/04 12:15:31;;;;;;;8.32;2.78;;;23.50;59.80;;;;;;4993886;28;20085;-65
2022/09/04 12:18:04;;;;;;;9.68;2.58;;;23.50;59.70;;;;;;4981112;28;20069;-65
2022/09/04 12:21:05;;;;;;;7.82;2.15;;;23.50;59.60;;;;;;4974929;28;22095;-63
2022/09/04 12:23:43;;;;;;;10.52;2.65;;;23.50;59.80;;;;;;4983713;28;20034;-63
2022/09/04 12:26:41;;;;;;;10.02;3.05;;;23.50;60.20;;;;;;4982980;28;20042;-63
2022/09/04 12:29:18;;;;;;;10.60;2.90;;;23.50;60.20;;;;;;4978203;28;20069;-63
2022/09/04 12:32:03;;;;;;;10.30;2.50;;;23.50;60.10;;;;;;4978208;28;20050;-63
2022/09/04 12:34:47;;;;;;;10.90;2.65;;;23.60;60.30;;;;;;4983722;28;20066;-63
2022/09/04 12:37:42;;;;;;;8.98;2.67;;;23.60;60.40;;;;;;4967286;28;20034;-63
2022/09/04 12:40:20;;;;;;;9.55;3.03;;;23.60;60.60;;;;;;4979598;28;20065;-63
2022/09/04 12:43:05;;;;;;;9.57;2.72;;;23.60;61.40;;;;;;4984022;28;20057;-63
2022/09/04 12:45:46;;;;;;;11.55;2.85;;;23.60;60.60;;;;;;4970384;28;20683;-63
2022/09/04 12:48:47;;;;;;;9.90;2.97;;;23.70;60.50;;;;;;4986725;28;20046;-63
2022/09/04 12:51:15;;;;;;;9.15;2.78;;;23.70;60.30;;;;;;4911790;29;20168;-63
2022/09/04 12:54:02;;;;;;;10.27;3.10;;;23.70;60.50;;;;;;4894502;29;20864;-63
2022/09/04 12:56:44;;;;;;;10.10;2.70;;;23.70;60.50;;;;;;4910090;29;20421;-63
2022/09/04 12:59:34;;;;;;;8.18;2.70;;;23.80;60.60;;;;;;4911480;29;20068;-63
2022/09/04 13:02:22;;;;;;;10.48;2.70;;;23.80;60.60;;;;;;4895375;29;20044;-63
2022/09/04 13:05:23;;;;;;;11.77;3.00;;;23.80;60.60;;;;;;4910453;29;20158;-63
2022/09/04 13:08:13;;;;;;;7.63;3.00;;;23.80;60.70;;;;;;4922998;29;20100;-63
2022/09/04 13:11:03;;;;;;;8.52;2.80;;;23.80;60.70;;;;;;4913274;29;20058;-63
2022/09/04 13:13:37;;;;;;;11.75;2.60;;;23.80;60.70;;;;;;4929686;29;20783;-66
2022/09/04 13:16:21;;;;;;;10.13;2.60;;;23.80;60.50;;;;;;4929045;28;20354;-64
2022/09/04 13:19:13;;;;;;;8.75;2.58;;;23.80;60.30;;;;;;4923619;29;20019;-65
2022/09/04 13:21:50;;;;;;;9.32;3.13;;;23.80;60.60;;;;;;4929929;29;20044;-65
2022/09/04 13:24:52;;;;;;;8.15;3.00;;;23.90;59.90;;;;;;4929782;29;20223;-62
2022/09/04 13:27:48;;;;;;;6.68;2.33;;;23.90;60.00;;;;;;4970063;28;20065;-63
2022/09/04 13:30:24;;;;;;;;;;;23.90;59.60;;;;;;4966174;28;20053;-64
2022/09/04 13:33:01;;;;;;;9.02;2.60;;;23.90;60.00;;;;;;4942316;28;19914;-64
2022/09/04 13:35:46;;;;;;;10.50;3.05;;;23.90;59.90;;;;;;4944383;28;21130;-63
2022/09/04 13:38:30;;;;;;;;;;;23.90;60.20;;;;;;4967712;28;20062;-63
2022/09/04 13:41:32;;;;;;;10.15;2.67;;;24.00;59.80;;;;;;4967314;28;19953;-63
2022/09/04 13:44:04;;;;;;;9.45;2.75;;;24.00;59.90;;;;;;4963736;28;20062;-61
2022/09/04 13:46:39;;;;;;;8.68;2.50;;;23.90;58.70;;;;;;4966447;28;20161;-63
2022/09/04 13:49:14;;;;;;;10.15;2.63;;;24.00;59.00;;;;;;4960360;28;20526;-63
2022/09/04 13:52:17;;;;;;;9.10;2.80;;;24.00;59.00;;;;;;4946843;28;20034;-63
2022/09/04 13:54:45;;;;;;;9.02;2.88;;;24.00;58.70;;;;;;4965778;28;20039;-63
2022/09/04 13:57:24;;;;;;;8.25;2.78;;;24.00;59.10;;;;;;4949293;28;20097;-62
2022/09/04 13:59:52;;;;;;;11.20;2.83;;;24.00;59.30;;;;;;4946603;28;20035;-62
2022/09/04 14:02:24;;;;;;;7.85;2.47;;;24.00;58.80;;;;;;4949530;28;20037;-63
2022/09/04 14:05:19;;;;;;;8.57;2.45;;;24.00;58.50;;;;;;4947199;28;20023;-63
2022/09/04 14:07:48;;;;;;;8.73;2.60;;;24.00;58.50;;;;;;4978350;28;20083;-63
2022/09/04 14:10:19;;;;;;;9.70;2.70;;;24.00;58.50;;;;;;4983219;28;20073;-62
2022/09/04 14:13:08;;;;;;;8.60;2.55;;;24.00;58.50;;;;;;4968625;28;20070;-62
2022/09/04 14:16:03;;;;;;;12.88;2.92;;;24.10;58.50;;;;;;4999408;28;20022;-63
2022/09/04 14:18:51;;;;;;;10.70;2.65;;;24.10;58.10;;;;;;4983936;28;20034;-62
2022/09/04 14:21:28;;;;;;;9.52;2.70;;;24.10;58.20;;;;;;4996933;28;20043;-63
2022/09/04 14:23:56;;;;;;;8.52;2.60;;;24.10;58.40;;;;;;4978786;28;20023;-63
2022/09/04 14:27:11;;;;;;;9.60;2.72;;;24.20;58.60;;;;;;4983795;28;20056;-63
2022/09/04 14:30:04;;;;;;;7.78;2.60;;;24.20;58.60;;;;;;4983962;28;20026;-63
2022/09/04 14:32:56;;;;;;;9.00;2.50;;;24.20;58.60;;;;;;4981071;28;20454;-63
2022/09/04 14:35:45;;;;;;;10.07;2.70;;;24.10;58.20;;;;;;4982163;28;20034;-63
2022/09/04 14:38:31;;;;;;;10.05;2.60;;;24.20;58.00;;;;;;4984606;28;20566;-63
2022/09/04 14:41:30;;;;;;;7.30;2.30;;;24.20;57.90;;;;;;4984327;28;20034;-63
2022/09/04 14:44:17;;;;;;;8.95;2.80;;;24.20;58.20;;;;;;4981530;28;20031;-63